Time;durP1;ratioP1;P1;durP2;ratioP2;P2;SDS_P1;SDS_P2;PMS_P1;PMS_P2;Temp;Humidity;BMP_temperature;BMP_pressure;BME280_temperature;BME280_humidity;BME280_pressure;Samples;Min_cycle;Max_cycle;Signal;HPM_P1;HPM_P2
2022/01/02 00:01:57;;;;;;;1.40;1.30;;;18.10;61.50;;;;;;5053197;28;20229;-58
2022/01/02 00:04:23;;;;;;;1.73;1.63;;;18.10;61.50;;;;;;5054642;28;20203;-58
2022/01/02 00:06:50;;;;;;;2.10;1.58;;;18.10;61.50;;;;;;5053652;28;20182;-57
2022/01/02 00:09:32;;;;;;;1.10;1.08;;;18.10;61.60;;;;;;5054471;28;20168;-58
2022/01/02 00:12:13;;;;;;;1.60;1.50;;;18.00;61.50;;;;;;5055183;28;20171;-60
2022/01/02 00:14:43;;;;;;;1.75;1.65;;;18.10;61.60;;;;;;5053362;28;20179;-60
2022/01/02 00:17:09;;;;;;;3.00;1.60;;;18.00;61.40;;;;;;5054361;28;20190;-58
2022/01/02 00:19:38;;;;;;;2.67;1.75;;;18.00;61.50;;;;;;5054647;28;20167;-59
2022/01/02 00:22:12;;;;;;;1.90;1.70;;;18.00;61.50;;;;;;5054176;28;20262;-58
2022/01/02 00:24:38;;;;;;;1.73;1.63;;;18.00;61.50;;;;;;5054314;28;20765;-59
2022/01/02 00:27:06;;;;;;;1.65;1.55;;;18.00;61.50;;;;;;5053378;28;20254;-58
2022/01/02 00:29:32;;;;;;;1.92;1.73;;;18.00;61.50;;;;;;5052222;28;20183;-58
2022/01/02 00:31:57;;;;;;;1.88;1.67;;;18.00;61.50;;;;;;5053471;28;20286;-57
2022/01/02 00:34:26;;;;;;;1.50;1.40;;;18.00;61.40;;;;;;5054188;28;20179;-58
2022/01/02 00:36:51;;;;;;;2.00;1.77;;;17.90;61.40;;;;;;5052470;28;20673;-58
2022/01/02 00:39:17;;;;;;;2.08;1.88;;;17.90;61.40;;;;;;5053154;28;20209;-57
2022/01/02 00:41:56;;;;;;;1.70;1.60;;;17.90;61.40;;;;;;5053990;28;20459;-58
2022/01/02 00:44:47;;;;;;;1.70;1.60;;;17.90;61.40;;;;;;5052200;28;20236;-59
2022/01/02 00:47:44;;;;;;;2.05;1.75;;;17.90;61.40;;;;;;5053837;28;20597;-58
2022/01/02 00:50:11;;;;;;;1.45;1.35;;;17.90;61.40;;;;;;5037939;28;20336;-58
2022/01/02 00:52:42;;;;;;;2.13;1.42;;;17.90;61.40;;;;;;5054072;28;20175;-59
2022/01/02 00:55:10;;;;;;;2.03;1.40;;;17.90;61.40;;;;;;5054320;28;20179;-58
2022/01/02 00:57:36;;;;;;;1.90;1.60;;;17.90;61.40;;;;;;5053114;28;20175;-58
2022/01/02 01:00:07;;;;;;;1.83;1.73;;;17.90;61.40;;;;;;5054069;28;20198;-58
2022/01/02 01:02:43;;;;;;;1.95;1.77;;;17.90;61.40;;;;;;5053537;28;20171;-58
2022/01/02 01:05:11;;;;;;;1.55;1.40;;;17.80;61.30;;;;;;5053416;28;20580;-58
2022/01/02 01:07:38;;;;;;;1.60;1.50;;;17.80;61.30;;;;;;5053758;28;20199;-57
2022/01/02 01:10:06;;;;;;;1.88;1.70;;;17.80;61.30;;;;;;5053934;28;20183;-58
2022/01/02 01:12:38;;;;;;;1.85;1.75;;;17.80;61.40;;;;;;5052705;28;20217;-59
2022/01/02 01:15:05;;;;;;;2.53;1.80;;;17.80;61.30;;;;;;5053753;28;20175;-58
2022/01/02 01:17:38;;;;;;;1.83;1.70;;;17.80;61.40;;;;;;5053198;28;20203;-58
2022/01/02 01:20:08;;;;;;;2.25;1.90;;;17.80;61.40;;;;;;5053197;28;20185;-58
2022/01/02 01:22:34;;;;;;;2.13;1.80;;;17.80;61.40;;;;;;5053259;28;20179;-58
2022/01/02 01:25:00;;;;;;;2.47;1.80;;;17.80;61.40;;;;;;5053570;28;20198;-59
2022/01/02 01:27:26;;;;;;;2.17;1.70;;;17.80;61.30;;;;;;5052575;28;20588;-59
2022/01/02 01:29:51;;;;;;;1.75;1.63;;;17.80;61.30;;;;;;5053307;28;20181;-59
2022/01/02 01:32:22;;;;;;;2.50;1.73;;;17.80;61.30;;;;;;5053375;28;20171;-58
2022/01/02 01:34:48;;;;;;;1.70;1.60;;;17.70;61.30;;;;;;5053535;28;20171;-57
2022/01/02 01:37:13;;;;;;;2.15;1.88;;;17.80;61.40;;;;;;5053339;28;20181;-58
2022/01/02 01:39:39;;;;;;;1.83;1.73;;;17.80;61.40;;;;;;5052317;28;20171;-58
2022/01/02 01:42:10;;;;;;;1.73;1.60;;;17.80;61.40;;;;;;5053117;28;20179;-59
2022/01/02 01:47:14;;;;;;;2.08;1.77;;;17.70;61.30;;;;;;5052616;28;20684;-58
2022/01/02 01:49:39;;;;;;;1.80;1.70;;;17.70;61.30;;;;;;5052334;28;20183;-58
2022/01/02 01:52:05;;;;;;;1.67;1.58;;;17.70;61.30;;;;;;5053206;28;20179;-58
2022/01/02 01:54:30;;;;;;;1.92;1.73;;;17.70;61.40;;;;;;5051944;28;20171;-58
2022/01/02 01:56:56;;;;;;;1.63;1.52;;;17.70;62.20;;;;;;5052961;28;20163;-59
2022/01/02 01:59:21;;;;;;;1.80;1.70;;;17.70;61.30;;;;;;5052681;28;20178;-57
2022/01/02 02:01:47;;;;;;;2.78;1.83;;;17.70;61.40;;;;;;5052164;28;20240;-57
2022/01/02 02:04:13;;;;;;;2.00;1.90;;;17.70;61.30;;;;;;5052711;28;20203;-56
2022/01/02 02:06:38;;;;;;;1.80;1.60;;;17.60;61.20;;;;;;5052402;28;20179;-57
2022/01/02 02:09:04;;;;;;;2.70;1.95;;;17.60;61.20;;;;;;5051879;28;20167;-59
2022/01/02 02:11:30;;;;;;;1.58;1.48;;;17.70;61.30;;;;;;5052337;28;20179;-58
2022/01/02 02:13:55;;;;;;;1.85;1.75;;;17.60;61.20;;;;;;5052743;28;20531;-58
2022/01/02 02:16:21;;;;;;;2.30;2.10;;;17.60;61.30;;;;;;5051799;28;20267;-58
2022/01/02 02:18:47;;;;;;;2.17;1.83;;;17.60;61.20;;;;;;5052497;28;20364;-59
2022/01/02 02:21:12;;;;;;;2.08;1.88;;;17.70;61.30;;;;;;5052359;28;20175;-58
2022/01/02 02:23:38;;;;;;;1.83;1.63;;;17.60;61.20;;;;;;5051513;28;20179;-59
2022/01/02 02:26:03;;;;;;;2.08;1.88;;;17.60;61.30;;;;;;5052257;28;20213;-59
2022/01/02 02:28:29;;;;;;;1.80;1.70;;;17.60;61.20;;;;;;5052143;28;20170;-59
2022/01/02 02:30:55;;;;;;;1.85;1.67;;;17.60;61.20;;;;;;5051651;28;20178;-58
2022/01/02 02:33:20;;;;;;;1.77;1.50;;;17.60;61.20;;;;;;5051815;28;20552;-56
2022/01/02 02:35:46;;;;;;;1.58;1.33;;;17.60;61.20;;;;;;5051372;28;20175;-58
2022/01/02 02:38:13;;;;;;;1.73;1.58;;;17.60;61.20;;;;;;5052311;28;20194;-59
2022/01/02 02:40:38;;;;;;;3.28;1.88;;;17.60;61.30;;;;;;5051892;28;20624;-58
2022/01/02 02:43:21;;;;;;;1.75;1.58;;;17.60;61.30;;;;;;5051353;28;20194;-59
2022/01/02 02:51:21;;;;;;;2.28;1.70;;;17.60;61.30;;;;;;5051245;28;20234;-58
2022/01/02 02:53:47;;;;;;;1.90;1.80;;;17.60;61.20;;;;;;5052269;28;20175;-59
2022/01/02 02:56:22;;;;;;;2.58;1.90;;;17.60;61.30;;;;;;5052112;28;20179;-57
2022/01/02 02:58:55;;;;;;;2.03;1.80;;;17.60;61.30;;;;;;5051431;28;20178;-59
2022/01/02 03:01:22;;;;;;;1.80;1.70;;;17.60;61.30;;;;;;5050891;28;20288;-59
2022/01/02 03:03:47;;;;;;;1.98;1.60;;;17.50;61.20;;;;;;5051482;28;20182;-58
2022/01/02 03:06:13;;;;;;;2.30;2.10;;;17.60;61.30;;;;;;5051768;28;20206;-57
2022/01/02 03:08:40;;;;;;;2.55;1.90;;;17.60;61.30;;;;;;5052086;28;20330;-58
2022/01/02 03:11:09;;;;;;;2.40;1.92;;;17.50;61.20;;;;;;5051291;28;20719;-59
2022/01/02 03:13:34;;;;;;;2.58;2.00;;;17.50;61.30;;;;;;5051338;28;20179;-59
2022/01/02 03:16:00;;;;;;;1.55;1.45;;;17.50;61.30;;;;;;5051565;28;20171;-59
2022/01/02 03:18:25;;;;;;;2.17;1.98;;;17.50;61.30;;;;;;5050819;28;20210;-58
2022/01/02 03:20:51;;;;;;;2.17;1.98;;;17.50;61.30;;;;;;5051832;28;20175;-58
2022/01/02 03:23:16;;;;;;;2.55;1.88;;;17.50;61.30;;;;;;5051878;28;20179;-59
2022/01/02 03:25:42;;;;;;;1.60;1.50;;;17.50;61.30;;;;;;5050456;28;20566;-57
2022/01/02 03:28:07;;;;;;;1.83;1.73;;;17.50;61.30;;;;;;5051502;28;20174;-58
2022/01/02 03:30:33;;;;;;;2.25;1.70;;;17.50;61.30;;;;;;5051074;28;20651;-57
2022/01/02 03:32:58;;;;;;;1.83;1.60;;;17.50;61.30;;;;;;5051029;28;20618;-58
2022/01/02 03:35:24;;;;;;;1.92;1.80;;;17.50;61.30;;;;;;5051131;28;20178;-58
2022/01/02 03:37:51;;;;;;;3.15;2.00;;;17.50;61.30;;;;;;5051368;28;20622;-57
2022/01/02 03:40:16;;;;;;;2.33;2.13;;;17.50;61.30;;;;;;5050775;28;20179;-58
2022/01/02 03:42:42;;;;;;;2.13;1.63;;;17.50;61.30;;;;;;5051110;28;20221;-57
2022/01/02 03:45:08;;;;;;;2.35;1.77;;;17.40;61.30;;;;;;5051317;28;20241;-59
2022/01/02 03:47:33;;;;;;;2.72;2.00;;;17.50;61.30;;;;;;5050328;28;20175;-59
2022/01/02 03:49:59;;;;;;;2.22;1.50;;;17.50;61.30;;;;;;5051491;28;20227;-58
2022/01/02 03:52:25;;;;;;;2.42;1.90;;;17.50;61.30;;;;;;5051467;28;20194;-57
2022/01/02 03:54:50;;;;;;;2.40;1.90;;;17.50;61.30;;;;;;5050809;28;20245;-58
2022/01/02 03:57:16;;;;;;;1.98;1.88;;;17.50;61.30;;;;;;5051310;28;20626;-58
2022/01/02 03:59:41;;;;;;;2.97;2.17;;;17.50;61.30;;;;;;5050845;28;20205;-58
2022/01/02 04:02:08;;;;;;;2.67;1.92;;;17.50;61.30;;;;;;5050435;28;20221;-57
2022/01/02 04:04:33;;;;;;;2.33;1.80;;;17.50;61.30;;;;;;5050920;28;20207;-58
2022/01/02 04:06:59;;;;;;;2.63;1.80;;;17.50;61.30;;;;;;5051256;28;20175;-58
2022/01/02 04:09:24;;;;;;;3.05;2.03;;;17.50;61.30;;;;;;5050195;28;20224;-60
2022/01/02 04:11:50;;;;;;;2.67;1.95;;;17.50;61.30;;;;;;5051066;28;20588;-60
2022/01/02 04:14:15;;;;;;;2.70;2.17;;;17.40;61.30;;;;;;5054049;28;20175;-60
2022/01/02 04:16:41;;;;;;;1.95;1.75;;;17.40;61.30;;;;;;5054581;28;20175;-60
2022/01/02 04:19:06;;;;;;;2.20;1.98;;;17.40;61.30;;;;;;5055064;28;20189;-60
2022/01/02 04:21:32;;;;;;;1.95;1.75;;;17.40;61.30;;;;;;5053992;28;20241;-59
2022/01/02 04:23:58;;;;;;;1.85;1.75;;;17.40;61.30;;;;;;5054840;28;20174;-60
2022/01/02 04:26:23;;;;;;;1.95;1.67;;;17.40;61.30;;;;;;5054629;28;20175;-59
2022/01/02 04:28:49;;;;;;;1.73;1.58;;;17.40;61.30;;;;;;5053919;28;20171;-60
2022/01/02 04:31:14;;;;;;;2.75;1.90;;;17.40;61.30;;;;;;5054480;28;20248;-59
2022/01/02 04:33:40;;;;;;;2.58;1.73;;;17.40;61.30;;;;;;5054321;28;20540;-58
2022/01/02 04:36:05;;;;;;;2.55;1.85;;;17.40;61.30;;;;;;5054094;28;20187;-59
2022/01/02 04:38:31;;;;;;;1.92;1.60;;;17.40;61.30;;;;;;5054538;28;20184;-59
2022/01/02 04:40:56;;;;;;;2.75;1.92;;;17.40;61.30;;;;;;5054625;28;20274;-59
2022/01/02 04:43:22;;;;;;;3.05;2.00;;;17.40;61.30;;;;;;5053644;28;20221;-58
2022/01/02 04:45:47;;;;;;;2.45;1.63;;;17.40;61.30;;;;;;5054542;28;20593;-59
2022/01/02 04:48:13;;;;;;;3.05;2.17;;;17.40;61.30;;;;;;5054373;28;20185;-59
2022/01/02 04:50:39;;;;;;;2.78;1.70;;;17.40;61.30;;;;;;5053280;28;20231;-58
2022/01/02 04:53:04;;;;;;;3.75;2.03;;;17.40;61.30;;;;;;5054537;28;20183;-58
2022/01/02 04:55:30;;;;;;;2.67;1.80;;;17.40;61.40;;;;;;5053989;28;20182;-58
2022/01/02 04:57:55;;;;;;;2.72;2.10;;;17.40;61.30;;;;;;5053610;28;20754;-58
2022/01/02 05:00:21;;;;;;;4.07;1.95;;;17.40;61.30;;;;;;5053840;28;20183;-58
2022/01/02 05:02:49;;;;;;;6.38;2.00;;;17.40;61.40;;;;;;5054347;28;20171;-57
2022/01/02 05:05:15;;;;;;;2.70;2.20;;;17.40;61.30;;;;;;5053486;28;20279;-58
2022/01/02 05:07:40;;;;;;;2.25;1.50;;;17.40;61.40;;;;;;5053672;28;20176;-58
2022/01/02 05:10:06;;;;;;;2.70;2.08;;;17.40;61.40;;;;;;5054224;28;20179;-58
2022/01/02 05:12:32;;;;;;;2.78;1.70;;;17.30;61.30;;;;;;5052919;28;20183;-60
2022/01/02 05:14:57;;;;;;;2.65;1.58;;;17.40;61.40;;;;;;5053915;28;20268;-59
2022/01/02 05:17:23;;;;;;;3.28;2.10;;;17.30;61.30;;;;;;5053665;28;20633;-58
2022/01/02 05:19:48;;;;;;;2.95;1.88;;;17.30;61.30;;;;;;5053195;28;20676;-58
2022/01/02 05:22:14;;;;;;;2.40;1.90;;;17.30;61.30;;;;;;5053923;28;20236;-59
2022/01/02 05:24:39;;;;;;;2.80;1.98;;;17.30;61.40;;;;;;5051829;28;20207;-58
2022/01/02 05:27:05;;;;;;;3.90;2.20;;;17.30;61.30;;;;;;5053691;28;20174;-59
2022/01/02 05:29:31;;;;;;;2.75;2.00;;;17.30;61.40;;;;;;5053192;28;20182;-58
2022/01/02 05:31:56;;;;;;;3.67;2.13;;;17.40;61.40;;;;;;5053152;28;20245;-58
2022/01/02 05:34:22;;;;;;;2.88;1.88;;;17.30;61.40;;;;;;5053351;28;20171;-57
2022/01/02 05:36:50;;;;;;;2.95;1.60;;;17.30;61.40;;;;;;5053518;28;20183;-57
2022/01/02 05:39:21;;;;;;;2.20;2.00;;;17.30;61.30;;;;;;5052647;28;20638;-58
2022/01/02 05:41:47;;;;;;;1.73;1.60;;;17.30;61.40;;;;;;5053335;28;20183;-58
2022/01/02 05:44:13;;;;;;;2.50;1.80;;;17.30;61.40;;;;;;5053350;28;20264;-58
2022/01/02 05:46:39;;;;;;;2.58;1.80;;;17.30;61.30;;;;;;5052342;28;20972;-58
2022/01/02 05:49:05;;;;;;;3.05;2.20;;;17.30;61.30;;;;;;5053272;28;20656;-59
2022/01/02 05:51:30;;;;;;;1.73;1.50;;;17.30;61.30;;;;;;5052630;28;20222;-57
2022/01/02 05:53:56;;;;;;;2.60;1.90;;;17.30;61.40;;;;;;5052292;28;20170;-59
2022/01/02 05:56:21;;;;;;;2.28;1.92;;;17.30;61.40;;;;;;5052544;28;20179;-58
2022/01/02 05:58:47;;;;;;;3.15;1.73;;;17.30;61.40;;;;;;5052944;28;20638;-58
2022/01/02 06:01:12;;;;;;;3.08;1.63;;;17.30;61.40;;;;;;5052196;28;20183;-57
2022/01/02 06:03:38;;;;;;;2.00;1.60;;;17.30;61.40;;;;;;5052477;28;20506;-58
2022/01/02 06:06:03;;;;;;;2.75;2.03;;;17.30;61.40;;;;;;5052634;28;20214;-56
2022/01/02 06:08:31;;;;;;;2.42;1.83;;;17.30;61.50;;;;;;5051561;28;20634;-58
2022/01/02 06:10:57;;;;;;;2.88;1.88;;;17.30;61.40;;;;;;5052613;28;20179;-58
2022/01/02 06:13:22;;;;;;;2.30;2.05;;;17.20;61.30;;;;;;5052202;28;20196;-58
2022/01/02 06:15:48;;;;;;;1.98;1.80;;;17.30;61.40;;;;;;5051928;28;20200;-59
2022/01/02 06:18:14;;;;;;;3.08;1.98;;;17.30;61.40;;;;;;5052777;28;20163;-59
2022/01/02 06:20:39;;;;;;;2.30;2.00;;;17.20;61.30;;;;;;5052064;28;20193;-58
2022/01/02 06:23:07;;;;;;;3.55;2.08;;;17.20;61.30;;;;;;5051972;28;20171;-59
2022/01/02 06:25:33;;;;;;;2.78;1.88;;;17.20;61.30;;;;;;5051986;28;20219;-59
2022/01/02 06:27:59;;;;;;;2.10;1.80;;;17.20;61.30;;;;;;5051594;28;20273;-59
2022/01/02 06:30:24;;;;;;;2.55;2.00;;;17.30;61.40;;;;;;5052136;28;20643;-59
2022/01/02 06:32:55;;;;;;;2.53;1.92;;;17.20;61.30;;;;;;5052310;28;20183;-58
2022/01/02 06:35:29;;;;;;;2.05;1.77;;;17.20;61.30;;;;;;5051237;28;20201;-59
2022/01/02 06:37:55;;;;;;;2.00;1.83;;;17.20;61.30;;;;;;5052169;28;20634;-59
2022/01/02 06:40:20;;;;;;;2.55;1.85;;;17.20;61.30;;;;;;5051670;28;20209;-59
2022/01/02 06:42:46;;;;;;;2.40;1.92;;;17.20;61.30;;;;;;5051533;28;20175;-58
2022/01/02 06:45:11;;;;;;;2.63;2.03;;;17.20;61.30;;;;;;5051820;28;20238;-59
2022/01/02 06:47:37;;;;;;;2.78;1.70;;;17.20;61.30;;;;;;5051839;28;20627;-57
2022/01/02 06:50:04;;;;;;;2.58;1.75;;;17.20;61.30;;;;;;5051033;28;20595;-59
2022/01/02 06:52:32;;;;;;;3.33;1.70;;;17.20;61.30;;;;;;5051948;28;20175;-59
2022/01/02 06:54:58;;;;;;;2.90;2.35;;;17.20;61.30;;;;;;5051849;28;20517;-59
2022/01/02 06:57:23;;;;;;;2.47;1.70;;;17.20;61.30;;;;;;5050758;28;20657;-59
2022/01/02 06:59:49;;;;;;;2.75;1.70;;;17.20;61.20;;;;;;5051817;28;20182;-58
2022/01/02 07:02:15;;;;;;;2.55;2.20;;;17.20;61.30;;;;;;5052115;28;20179;-58
2022/01/02 07:04:41;;;;;;;2.97;2.15;;;17.20;61.20;;;;;;5050685;28;20207;-57
2022/01/02 07:07:06;;;;;;;2.47;2.13;;;17.20;61.30;;;;;;5051686;28;20167;-59
2022/01/02 07:09:32;;;;;;;2.28;1.90;;;17.20;61.30;;;;;;5051325;28;20672;-57
2022/01/02 07:11:58;;;;;;;4.05;1.80;;;17.20;61.20;;;;;;5051177;28;20175;-60
2022/01/02 07:14:26;;;;;;;2.92;1.85;;;17.20;61.30;;;;;;5051494;28;20258;-59
2022/01/02 07:16:53;;;;;;;2.85;1.80;;;17.20;61.20;;;;;;5051595;28;20517;-58
2022/01/02 07:19:18;;;;;;;1.85;1.55;;;17.20;61.30;;;;;;5050905;28;20187;-58
2022/01/02 07:21:44;;;;;;;2.30;2.10;;;17.20;61.20;;;;;;5051486;28;20537;-58
2022/01/02 07:24:09;;;;;;;2.78;1.80;;;17.20;61.30;;;;;;5050828;28;20176;-58
2022/01/02 07:26:35;;;;;;;2.03;1.67;;;17.20;61.20;;;;;;5051220;28;20189;-58
2022/01/02 07:29:00;;;;;;;2.25;2.05;;;17.20;61.20;;;;;;5051380;28;20184;-59
2022/01/02 07:31:26;;;;;;;2.05;1.85;;;17.10;61.20;;;;;;5050341;28;20606;-57
2022/01/02 07:33:51;;;;;;;1.95;1.60;;;17.10;61.20;;;;;;5051488;28;20232;-57
2022/01/02 07:36:17;;;;;;;2.00;1.85;;;17.20;61.20;;;;;;5051259;28;20548;-58
2022/01/02 07:38:42;;;;;;;2.28;1.80;;;17.20;61.20;;;;;;5050275;28;20185;-57
2022/01/02 07:41:08;;;;;;;2.53;1.75;;;17.30;61.50;;;;;;5051574;28;20183;-58
2022/01/02 07:43:33;;;;;;;1.83;1.60;;;17.30;61.40;;;;;;5051021;28;20171;-58
2022/01/02 07:45:59;;;;;;;2.17;1.63;;;17.40;61.30;;;;;;5050931;28;20602;-58
2022/01/02 07:48:24;;;;;;;2.83;1.70;;;17.50;62.00;;;;;;5053430;28;20481;-57
2022/01/02 07:50:50;;;;;;;1.83;1.73;;;17.60;60.90;;;;;;5055115;28;20254;-57
2022/01/02 07:53:15;;;;;;;2.30;1.70;;;17.60;60.70;;;;;;5054481;28;20652;-59
2022/01/02 07:55:43;;;;;;;1.27;1.15;;;17.80;60.50;;;;;;5054913;28;20171;-56
2022/01/02 07:58:08;;;;;;;1.95;1.60;;;17.80;60.30;;;;;;5055089;28;20244;-57
2022/01/02 08:00:37;;;;;;;1.90;1.80;;;18.00;60.10;;;;;;5054215;28;20179;-58
2022/01/02 08:03:02;;;;;;;2.35;1.85;;;18.00;59.90;;;;;;5054943;28;20203;-58
2022/01/02 08:05:28;;;;;;;1.75;1.65;;;18.10;59.80;;;;;;5054553;28;20718;-58
2022/01/02 08:07:55;;;;;;;1.83;1.65;;;18.10;59.70;;;;;;5054279;28;20171;-58
2022/01/02 08:10:20;;;;;;;1.70;1.60;;;18.20;59.70;;;;;;5054721;28;20186;-58
2022/01/02 08:12:46;;;;;;;2.47;1.73;;;18.20;59.60;;;;;;5054812;28;20171;-58
2022/01/02 08:15:11;;;;;;;1.92;1.65;;;18.30;59.50;;;;;;5054247;28;20178;-58
2022/01/02 08:17:37;;;;;;;2.08;1.60;;;18.40;59.30;;;;;;5054370;28;20178;-58
2022/01/02 08:20:03;;;;;;;1.50;1.40;;;18.50;59.20;;;;;;5054680;28;20213;-58
2022/01/02 08:22:28;;;;;;;2.65;1.63;;;18.50;59.10;;;;;;5053560;28;20175;-59
2022/01/02 08:24:54;;;;;;;2.15;1.75;;;18.50;58.90;;;;;;5054706;28;20238;-58
2022/01/02 08:27:19;;;;;;;2.15;1.67;;;18.50;59.10;;;;;;5054000;28;20171;-58
2022/01/02 08:29:45;;;;;;;1.77;1.52;;;18.40;59.10;;;;;;5054712;28;20207;-59
2022/01/02 08:32:10;;;;;;;1.30;1.20;;;18.40;59.20;;;;;;5054595;28;20640;-59
2022/01/02 08:34:36;;;;;;;1.40;1.30;;;18.40;59.30;;;;;;5053629;28;20163;-56
2022/01/02 08:37:01;;;;;;;2.17;1.50;;;18.30;59.40;;;;;;5054386;28;20950;-58
2022/01/02 08:39:30;;;;;;;2.15;1.60;;;18.20;59.40;;;;;;5054319;28;20178;-58
2022/01/02 08:41:56;;;;;;;1.73;1.40;;;18.20;60.20;;;;;;5053737;28;20269;-57
2022/01/02 08:44:24;;;;;;;1.95;1.38;;;18.20;59.60;;;;;;5053786;28;20203;-58
2022/01/02 08:46:50;;;;;;;1.92;1.55;;;18.10;59.60;;;;;;5054196;28;20178;-57
2022/01/02 08:49:16;;;;;;;1.88;1.40;;;18.10;59.70;;;;;;5053439;28;20183;-58
2022/01/02 08:51:42;;;;;;;2.40;1.63;;;18.00;59.70;;;;;;5053627;28;20227;-58
2022/01/02 08:54:07;;;;;;;2.70;1.52;;;18.00;59.80;;;;;;5053927;28;20233;-58
2022/01/02 08:56:33;;;;;;;1.70;1.60;;;18.00;59.90;;;;;;5052610;28;20175;-57
2022/01/02 08:58:58;;;;;;;1.83;1.38;;;17.90;60.00;;;;;;5052934;28;20180;-58
2022/01/02 09:01:24;;;;;;;1.33;1.23;;;17.90;60.10;;;;;;5053559;28;20179;-57
2022/01/02 09:03:49;;;;;;;1.63;1.52;;;17.90;60.20;;;;;;5053190;28;20179;-56
2022/01/02 09:06:15;;;;;;;1.63;1.42;;;17.80;60.10;;;;;;5053837;28;20230;-57
2022/01/02 09:08:43;;;;;;;1.42;1.30;;;17.80;60.20;;;;;;5053688;28;20171;-57
2022/01/02 09:11:08;;;;;;;1.35;1.13;;;17.80;60.20;;;;;;5053035;28;20709;-59
2022/01/02 09:13:34;;;;;;;2.38;1.77;;;17.80;60.30;;;;;;5053354;28;20222;-58
2022/01/02 09:16:02;;;;;;;1.50;1.40;;;17.80;60.30;;;;;;5053704;28;20275;-58
2022/01/02 09:18:28;;;;;;;2.17;1.33;;;17.80;60.50;;;;;;5052655;28;20274;-58
2022/01/02 09:20:53;;;;;;;1.85;1.60;;;17.80;60.40;;;;;;5053831;28;20254;-58
2022/01/02 09:23:19;;;;;;;1.40;1.30;;;17.80;60.40;;;;;;5053504;28;20210;-58
2022/01/02 09:25:44;;;;;;;1.27;1.17;;;17.90;60.30;;;;;;5052857;28;20250;-57
2022/01/02 09:28:10;;;;;;;1.48;1.38;;;17.90;60.20;;;;;;5053513;28;20171;-58
2022/01/02 09:30:36;;;;;;;2.05;1.30;;;17.80;60.50;;;;;;5053101;28;20183;-56
2022/01/02 09:33:01;;;;;;;1.50;1.40;;;17.90;60.20;;;;;;5052911;28;20182;-58
2022/01/02 09:35:27;;;;;;;1.80;1.50;;;17.90;60.20;;;;;;5052985;28;20183;-56
2022/01/02 09:37:52;;;;;;;2.92;1.80;;;17.80;60.10;;;;;;5052850;28;20630;-56
2022/01/02 09:40:18;;;;;;;1.73;1.35;;;17.80;60.20;;;;;;5053331;28;20250;-57
2022/01/02 09:42:43;;;;;;;1.50;1.40;;;17.80;60.20;;;;;;5051803;28;20243;-58
2022/01/02 09:45:09;;;;;;;3.42;1.80;;;17.80;60.20;;;;;;5052425;28;20261;-59
2022/01/02 09:47:35;;;;;;;2.90;1.75;;;17.80;60.20;;;;;;5052879;28;20225;-58
2022/01/02 09:50:04;;;;;;;2.85;1.65;;;17.80;60.20;;;;;;5052817;28;20304;-62
2022/01/02 09:52:29;;;;;;;1.90;1.70;;;17.70;60.30;;;;;;5050493;28;20677;-63
2022/01/02 09:54:55;;;;;;;1.63;1.52;;;17.70;60.40;;;;;;5052751;28;20221;-65
2022/01/02 09:57:20;;;;;;;2.10;1.60;;;17.70;60.40;;;;;;5052573;28;20185;-65
2022/01/02 09:59:46;;;;;;;1.50;1.40;;;17.70;60.50;;;;;;5051873;28;20209;-65
2022/01/02 10:02:11;;;;;;;1.70;1.45;;;17.70;60.50;;;;;;5052564;28;20254;-65
2022/01/02 10:04:41;;;;;;;2.13;1.77;;;17.70;60.50;;;;;;5052152;28;20537;-65
2022/01/02 10:07:31;;;;;;;2.00;1.35;;;17.60;60.50;;;;;;5051797;28;20670;-66
2022/01/02 10:09:57;;;;;;;1.63;1.50;;;17.60;60.50;;;;;;5052267;28;20168;-65
2022/01/02 10:12:27;;;;;;;1.80;1.70;;;17.60;60.50;;;;;;5052008;28;20665;-65
2022/01/02 10:15:18;;;;;;;1.77;1.48;;;17.60;60.50;;;;;;5051708;28;20179;-65
2022/01/02 10:17:53;;;;;;;2.75;2.03;;;17.70;61.40;;;;;;5052878;28;20373;-64
2022/01/02 10:20:24;;;;;;;1.50;1.40;;;17.60;60.40;;;;;;5050172;28;20182;-65
2022/01/02 10:23:08;;;;;;;1.70;1.60;;;17.70;60.40;;;;;;5052355;28;20666;-63
2022/01/02 10:25:40;;;;;;;2.55;1.63;;;17.70;60.30;;;;;;5052170;28;20272;-62
2022/01/02 10:28:35;;;;;;;3.60;1.83;;;17.80;61.10;;;;;;5051833;28;20181;-62
2022/01/02 10:31:23;;;;;;;2.40;2.20;;;17.80;61.10;;;;;;5052368;28;20203;-63
2022/01/02 10:34:01;;;;;;;4.13;2.00;;;17.70;61.00;;;;;;5052566;28;20209;-63
2022/01/02 10:36:31;;;;;;;5.13;2.05;;;17.70;61.50;;;;;;5052140;28;20175;-63
2022/01/02 10:39:13;;;;;;;5.18;2.08;;;17.60;61.40;;;;;;5052189;28;20178;-66
2022/01/02 10:41:39;;;;;;;2.67;1.63;;;17.60;61.50;;;;;;5050947;28;20560;-66
2022/01/02 10:44:18;;;;;;;3.25;1.90;;;17.60;61.60;;;;;;5051809;28;20258;-67
2022/01/02 10:47:09;;;;;;;11.00;1.83;;;17.60;61.40;;;;;;5051781;28;20266;-65
2022/01/02 10:50:16;;;;;;;6.57;2.38;;;17.60;61.60;;;;;;5050486;28;20181;-65
2022/01/02 10:52:46;;;;;;;9.60;2.00;;;17.60;61.70;;;;;;5029336;28;20184;-62
2022/01/02 10:55:17;;;;;;;2.00;1.67;;;17.70;61.50;;;;;;5029047;28;20268;-62
2022/01/02 10:57:42;;;;;;;3.60;2.17;;;17.70;61.20;;;;;;5041257;28;20277;-62
2022/01/02 11:00:09;;;;;;;4.20;2.17;;;17.70;61.20;;;;;;5051802;28;20642;-64
2022/01/02 11:02:34;;;;;;;4.28;1.70;;;17.70;61.10;;;;;;5050770;28;20182;-64
2022/01/02 11:05:05;;;;;;;2.72;2.13;;;17.80;61.20;;;;;;5051440;28;20215;-64
2022/01/02 11:07:39;;;;;;;3.05;2.20;;;17.70;61.10;;;;;;5051593;28;20186;-62
2022/01/02 11:10:05;;;;;;;1.83;1.67;;;17.70;61.10;;;;;;5051012;28;20515;-63
2022/01/02 11:12:31;;;;;;;3.58;1.73;;;17.70;61.30;;;;;;5051387;28;20185;-63
2022/01/02 11:14:56;;;;;;;3.15;1.83;;;17.70;61.10;;;;;;5051604;28;20187;-63
2022/01/02 11:17:22;;;;;;;2.83;1.83;;;17.70;61.30;;;;;;5049058;28;20256;-62
2022/01/02 11:19:47;;;;;;;3.42;1.77;;;17.70;61.20;;;;;;5051409;28;20582;-62
2022/01/02 11:22:21;;;;;;;2.55;1.83;;;17.70;61.30;;;;;;5050670;28;20186;-62
2022/01/02 11:24:52;;;;;;;4.22;2.00;;;17.70;61.20;;;;;;5049632;28;20215;-62
2022/01/02 11:27:23;;;;;;;2.65;2.20;;;17.70;61.20;;;;;;5050273;28;20175;-63
2022/01/02 11:29:49;;;;;;;4.32;2.60;;;17.70;61.10;;;;;;5050127;28;20254;-63
2022/01/02 11:32:26;;;;;;;2.33;2.13;;;17.70;61.10;;;;;;5050743;28;20215;-63
2022/01/02 11:34:52;;;;;;;3.80;2.05;;;17.70;61.20;;;;;;5051453;28;20178;-64
2022/01/02 11:37:25;;;;;;;2.00;1.83;;;17.70;61.20;;;;;;5050619;28;20244;-63
2022/01/02 11:40:02;;;;;;;2.85;1.92;;;17.70;61.20;;;;;;5051302;28;20648;-63
2022/01/02 11:42:38;;;;;;;2.72;2.30;;;17.70;61.10;;;;;;5050904;28;20556;-64
2022/01/02 11:45:05;;;;;;;4.18;2.13;;;17.70;61.10;;;;;;5050510;28;20569;-65
2022/01/02 11:47:45;;;;;;;5.03;2.42;;;17.70;61.70;;;;;;5050965;28;20573;-64
2022/01/02 11:50:30;;;;;;;2.55;2.05;;;17.70;61.50;;;;;;5050971;28;20226;-63
2022/01/02 11:53:14;;;;;;;3.72;2.25;;;17.60;61.60;;;;;;5050222;28;20641;-61
2022/01/02 11:55:40;;;;;;;5.70;2.10;;;17.60;61.40;;;;;;5050649;28;20175;-62
2022/01/02 11:58:05;;;;;;;2.72;1.77;;;17.60;61.40;;;;;;5050866;28;20262;-64
2022/01/02 12:00:41;;;;;;;3.13;2.03;;;17.60;61.30;;;;;;5049766;28;20618;-64
2022/01/02 12:03:40;;;;;;;3.78;2.42;;;17.60;61.60;;;;;;5050925;28;20547;-66
2022/01/02 12:06:24;;;;;;;4.50;1.85;;;17.60;61.70;;;;;;5048798;28;20340;-63
2022/01/02 12:08:53;;;;;;;3.20;2.30;;;17.60;61.80;;;;;;5050721;28;20267;-62
2022/01/02 12:11:38;;;;;;;3.25;2.33;;;17.60;61.50;;;;;;5050602;28;20167;-63
2022/01/02 12:14:20;;;;;;;4.53;2.00;;;17.60;61.60;;;;;;5050376;28;20181;-64
2022/01/02 12:16:57;;;;;;;15.15;2.22;;;17.60;61.80;;;;;;5050870;28;20540;-63
2022/01/02 12:19:23;;;;;;;3.85;1.83;;;17.60;61.90;;;;;;5050471;28;20643;-63
2022/01/02 12:22:18;;;;;;;2.85;1.92;;;17.60;61.90;;;;;;5050590;28;20206;-64
2022/01/02 12:24:44;;;;;;;5.25;2.33;;;17.50;61.80;;;;;;5045716;28;20222;-62
2022/01/02 12:27:14;;;;;;;7.38;2.20;;;17.60;62.00;;;;;;5050260;28;20167;-63
2022/01/02 12:29:40;;;;;;;6.97;2.40;;;17.60;61.90;;;;;;5050468;28;20179;-63
2022/01/02 12:32:06;;;;;;;4.07;2.22;;;17.60;61.60;;;;;;5050686;28;20194;-62
2022/01/02 12:34:33;;;;;;;4.15;2.22;;;17.60;61.40;;;;;;5051806;28;21038;-64
2022/01/02 12:37:02;;;;;;;4.75;2.25;;;17.60;61.50;;;;;;5053931;28;20637;-65
2022/01/02 12:39:29;;;;;;;3.60;2.22;;;17.70;61.50;;;;;;5053656;28;20236;-64
2022/01/02 12:42:06;;;;;;;4.80;2.17;;;17.70;61.50;;;;;;5053342;28;20178;-64
2022/01/02 12:44:33;;;;;;;3.20;2.10;;;17.70;61.40;;;;;;5053647;28;20194;-63
2022/01/02 12:47:00;;;;;;;3.45;2.10;;;17.70;61.50;;;;;;5053657;28;20214;-61
2022/01/02 12:49:28;;;;;;;4.00;2.00;;;17.80;61.50;;;;;;5052166;28;20183;-62
2022/01/02 12:52:17;;;;;;;4.20;2.00;;;17.80;61.30;;;;;;5050363;28;20698;-62
2022/01/02 12:54:46;;;;;;;4.72;2.25;;;17.80;61.30;;;;;;5046396;28;20189;-62
2022/01/02 12:57:13;;;;;;;4.93;2.08;;;17.80;61.30;;;;;;5052798;28;20250;-62
2022/01/02 12:59:54;;;;;;;5.03;2.22;;;17.80;61.20;;;;;;5052633;28;20823;-62
2022/01/02 13:02:21;;;;;;;3.30;2.03;;;17.80;61.30;;;;;;5050638;28;20202;-63